Time;durP1;ratioP1;P1;durP2;ratioP2;P2;SDS_P1;SDS_P2;PMS_P1;PMS_P2;Temp;Humidity;BMP_temperature;BMP_pressure;BME280_temperature;BME280_humidity;BME280_pressure;Samples;Min_cycle;Max_cycle;Signal;HPM_P1;HPM_P2
2023/05/22 00:00:51;;;;;;;4.00;3.40;;;;;;;13.50;100.00;97641.94;1688119;75;1909662;-71
2023/05/22 00:03:23;;;;;;;3.70;3.30;;;;;;;13.44;100.00;97632.91;1686308;75;2860002;-72
2023/05/22 00:05:57;;;;;;;5.50;3.50;;;;;;;13.41;100.00;97636.66;1676789;75;2952157;-70
2023/05/22 00:08:30;;;;;;;3.50;3.20;;;;;;;13.36;100.00;97634.66;1687305;75;2813009;-74
2023/05/22 00:11:00;;;;;;;4.55;4.10;;;;;;;13.26;100.00;97630.59;1703353;75;755647;-71
2023/05/22 00:13:37;;;;;;;4.65;4.00;;;;;;;13.32;100.00;97640.38;1712279;75;715293;-70
2023/05/22 00:16:08;;;;;;;4.25;3.85;;;;;;;13.31;100.00;97635.38;1703253;75;742435;-71
2023/05/22 00:18:41;;;;;;;3.85;3.45;;;;;;;13.29;100.00;97626.88;1699446;75;1692802;-70
2023/05/22 00:21:11;;;;;;;3.40;3.10;;;;;;;13.26;100.00;97627.84;1701215;75;862691;-70
2023/05/22 00:23:44;;;;;;;4.05;3.65;;;;;;;13.21;100.00;97629.31;1712001;75;702855;-72
2023/05/22 00:26:18;;;;;;;3.25;2.95;;;;;;;13.25;100.00;97618.06;1703064;75;744507;-71
2023/05/22 00:28:48;;;;;;;4.80;4.30;;;;;;;13.21;100.00;97623.81;1711818;75;736306;-71
2023/05/22 00:31:18;;;;;;;5.35;4.85;;;;;;;13.15;100.00;97620.28;1677998;75;2827485;-69
2023/05/22 00:33:49;;;;;;;6.05;4.00;;;;;;;13.19;100.00;97616.06;1712508;75;714333;-70
2023/05/22 00:36:19;;;;;;;6.30;4.20;;;;;;;13.08;100.00;97609.78;1700472;75;935967;-73
2023/05/22 00:38:52;;;;;;;4.90;4.40;;;;;;;13.09;100.00;97614.78;1712680;75;668485;-70
2023/05/22 00:41:27;;;;;;;4.50;4.10;;;;;;;13.04;100.00;97607.28;1703995;75;738234;-70
2023/05/22 00:43:57;;;;;;;4.80;4.10;;;;;;;13.10;100.00;97607.28;1708666;75;935563;-71
2023/05/22 00:46:28;;;;;;;4.35;3.95;;;;;;;13.07;100.00;97606.28;1703147;75;742078;-72
2023/05/22 00:48:59;;;;;;;4.90;4.40;;;;;;;12.98;100.00;97607.22;1712366;75;666286;-70
2023/05/22 00:51:30;;;;;;;4.65;4.25;;;;;;;12.98;100.00;97604.47;1701668;75;801804;-72
2023/05/22 00:54:02;;;;;;;3.95;3.55;;;;;;;13.01;100.00;97602.75;1711969;75;703860;-73
2023/05/22 00:56:33;;;;;;;5.60;4.30;;;;;;;13.03;100.00;97597.50;1703314;75;734010;-71
2023/05/22 00:59:03;;;;;;;4.65;3.75;;;;;;;13.04;100.00;97595.53;1697916;75;1909282;-70
2023/05/22 01:01:40;;;;;;;3.55;3.25;;;;;;;13.04;100.00;97601.03;1703046;75;746071;-71
2023/05/22 01:04:13;;;;;;;;;;;;;;;13.09;100.00;97586.56;1703742;75;718785;-72
2023/05/22 01:06:45;;;;;;;4.90;4.40;;;;;;;13.00;100.00;97591.00;1712155;75;671114;-72
2023/05/22 01:09:18;;;;;;;7.50;6.50;;;;;;;13.03;100.00;97608.50;1689825;75;1887491;-70
2023/05/22 01:12:01;;;;;;;8.40;7.40;;;;;;;12.84;100.00;97607.41;1710031;75;867742;-70
2023/05/22 01:14:41;;;;;;;11.30;10.20;;;;;;;12.67;100.00;97635.53;1704207;75;675421;-73
2023/05/22 01:17:33;;;;;;;12.45;11.25;;;;;;;12.64;100.00;97624.78;1704274;75;682194;-70
2023/05/22 01:20:16;;;;;;;10.90;9.80;;;;;;;12.84;100.00;97612.91;1711785;75;674523;-71
2023/05/22 01:23:38;;;;;;;8.90;8.00;;;;;;;13.07;100.00;97608.28;1701975;75;775948;-71
2023/05/22 01:26:43;;;;;;;9.95;9.05;;;;;;;13.04;100.00;97614.78;1702432;75;756200;-71
2023/05/22 01:29:40;;;;;;;10.10;8.70;;;;;;;13.08;100.00;97618.75;1700911;75;942350;-71
2023/05/22 01:32:15;;;;;;;9.60;8.60;;;;;;;13.14;100.00;97616.81;1702851;75;845758;-72
2023/05/22 01:34:49;;;;;;;9.95;8.95;;;;;;;13.16;100.00;97616.31;1710227;75;880282;-69
2023/05/22 01:37:22;;;;;;;7.25;6.55;;;;;;;13.30;100.00;97622.88;1703511;75;746116;-73
2023/05/22 01:39:55;;;;;;;7.50;6.80;;;;;;;13.17;100.00;97615.81;1712034;75;677276;-71
2023/05/22 01:42:25;;;;;;;5.80;5.30;;;;;;;13.18;100.00;97616.56;1703816;75;746259;-69
2023/05/22 01:44:56;;;;;;;7.00;6.40;;;;;;;13.18;100.00;97613.81;1686009;75;2883346;-70
2023/05/22 01:47:29;;;;;;;7.55;6.75;;;;;;;13.18;100.00;97611.81;1702447;75;757234;-71
2023/05/22 01:49:59;;;;;;;6.60;6.00;;;;;;;13.16;100.00;97619.06;1685890;75;2911318;-71
2023/05/22 01:52:39;;;;;;;6.40;5.80;;;;;;;13.16;100.00;97614.31;1631433;75;6722563;-70
2023/05/22 01:55:16;;;;;;;8.20;7.40;;;;;;;12.79;100.00;97617.91;1701731;75;919993;-72
2023/05/22 01:57:55;;;;;;;8.30;7.40;;;;;;;12.96;100.00;97611.72;1685112;75;2976644;-70
2023/05/22 02:00:27;;;;;;;6.50;5.90;;;;;;;13.06;100.00;97601.25;1677898;75;2878960;-74
2023/05/22 02:03:05;;;;;;;5.70;5.20;;;;;;;13.01;100.00;97611.00;1711948;75;684034;-70
2023/05/22 02:05:40;;;;;;;11.10;9.40;;;;;;;12.60;100.00;97613.28;1701230;75;859633;-72
2023/05/22 02:08:12;;;;;;;9.80;8.50;;;;;;;12.77;100.00;97594.88;1709633;75;902679;-70
2023/05/22 02:10:47;;;;;;;8.20;7.40;;;;;;;12.92;100.00;97600.97;1703640;75;739890;-72
2023/05/22 02:13:17;;;;;;;11.80;9.60;;;;;;;12.62;100.00;97608.78;1712432;75;680958;-72
2023/05/22 02:15:49;;;;;;;9.90;9.00;;;;;;;12.76;100.00;97602.38;1604169;75;9023996;-71
2023/05/22 02:18:22;;;;;;;8.00;7.30;;;;;;;12.89;100.00;97595.69;1711683;75;679951;-70
2023/05/22 02:20:53;;;;;;;7.75;7.05;;;;;;;12.84;100.00;97588.94;1703483;75;739160;-70
2023/05/22 02:23:23;;;;;;;8.45;7.65;;;;;;;12.73;100.00;97589.63;1697542;75;1892237;-72
2023/05/22 02:26:04;;;;;;;8.20;7.40;;;;;;;12.71;100.00;97586.63;1702923;75;754652;-71
2023/05/22 02:28:34;;;;;;;7.10;6.40;;;;;;;12.79;100.00;97592.41;1632048;75;6758820;-72
2023/05/22 02:31:07;;;;;;;5.50;5.00;;;;;;;12.81;100.00;97580.94;1711787;75;672784;-73
2023/05/22 02:33:39;;;;;;;5.70;5.20;;;;;;;12.77;100.00;97584.69;1703779;75;682948;-71
2023/05/22 02:36:13;;;;;;;6.30;5.70;;;;;;;12.76;100.00;97582.41;1711963;75;674141;-73
2023/05/22 02:38:43;;;;;;;5.20;4.60;;;;;;;12.70;100.00;97582.38;1678620;75;2826750;-70
2023/05/22 02:41:13;;;;;;;5.10;4.60;;;;;;;12.67;100.00;97564.13;1711714;75;719499;-71
2023/05/22 02:43:43;;;;;;;6.40;4.10;;;;;;;12.61;100.00;97573.59;1704659;75;677059;-71
2023/05/22 02:46:13;;;;;;;4.60;4.20;;;;;;;12.60;100.00;97583.06;1625308;75;8020309;-70
2023/05/22 02:48:47;;;;;;;5.60;4.90;;;;;;;12.52;100.00;97575.28;1692062;67;1780941;-74
2023/05/22 02:51:17;;;;;;;5.40;4.90;;;;;;;12.53;100.00;97581.53;1712950;75;670948;-71
2023/05/22 02:53:47;;;;;;;4.55;4.05;;;;;;;12.48;100.00;97577.53;1642613;75;5849056;-70
2023/05/22 02:56:17;;;;;;;4.55;4.15;;;;;;;12.48;100.00;97579.50;1710452;75;840744;-69
2023/05/22 02:58:47;;;;;;;5.60;5.00;;;;;;;12.31;100.00;97585.66;1703629;75;753357;-71
2023/05/22 03:01:17;;;;;;;6.30;5.70;;;;;;;12.21;100.00;97594.56;1711805;75;677187;-73
2023/05/22 03:03:50;;;;;;;6.10;5.50;;;;;;;12.16;100.00;97582.28;1703812;75;675894;-72
2023/05/22 03:06:22;;;;;;;6.10;5.50;;;;;;;12.24;100.00;97583.38;1712211;75;674210;-72
2023/05/22 03:08:52;;;;;;;5.50;4.60;;;;;;;12.16;100.00;97579.56;1701823;75;920524;-70
2023/05/22 03:11:22;;;;;;;5.50;4.60;;;;;;;12.13;100.00;97589.50;1709562;75;954001;-70
2023/05/22 03:13:52;;;;;;;7.85;6.75;;;;;;;12.07;100.00;97585.22;1701824;75;865980;-70
2023/05/22 03:16:22;;;;;;;6.30;5.70;;;;;;;12.11;100.00;97588.50;1712339;75;670315;-70
2023/05/22 03:19:11;;;;;;;7.20;5.70;;;;;;;11.96;100.00;97587.91;1677327;75;2905495;-75
2023/05/22 03:21:43;;;;;;;6.70;6.10;;;;;;;12.04;100.00;97586.94;1608525;75;8758750;-73
2023/05/22 03:24:13;;;;;;;6.10;5.50;;;;;;;12.09;100.00;97588.97;1712614;75;679541;-75
2023/05/22 03:26:43;;;;;;;6.40;5.80;;;;;;;12.17;100.00;97583.81;1667623;75;2701932;-73
2023/05/22 03:29:13;;;;;;;6.60;5.90;;;;;;;12.14;100.00;97584.78;1712785;75;675060;-72
2023/05/22 03:31:43;;;;;;;5.45;4.95;;;;;;;12.13;100.00;97583.28;1705538;75;674702;-73
2023/05/22 03:34:16;;;;;;;5.00;4.50;;;;;;;12.14;100.00;97591.00;1712832;75;678354;-74
2023/05/22 03:36:47;;;;;;;5.70;5.20;;;;;;;12.11;100.00;97589.25;1704752;75;689107;-74
2023/05/22 03:39:18;;;;;;;6.60;6.00;;;;;;;12.07;100.00;97577.00;1712825;75;674670;-72
2023/05/22 03:41:48;;;;;;;6.40;5.00;;;;;;;12.12;100.00;97577.06;1704495;75;700361;-71
2023/05/22 03:44:18;;;;;;;4.80;4.30;;;;;;;12.17;100.00;97572.84;1712668;75;684748;-72
2023/05/22 03:46:49;;;;;;;4.50;4.00;;;;;;;12.17;100.00;97569.31;1705071;75;679696;-74
2023/05/22 03:49:22;;;;;;;4.60;4.20;;;;;;;12.16;100.00;97568.56;1650583;75;5896490;-72
2023/05/22 03:51:52;;;;;;;4.25;3.85;;;;;;;12.20;100.00;97571.84;1702104;75;877108;-72
2023/05/22 03:54:22;;;;;;;4.50;4.10;;;;;;;12.27;100.00;97570.66;1644068;75;6440541;-72
2023/05/22 03:56:53;;;;;;;3.90;3.50;;;;;;;12.29;100.00;97574.41;1704748;75;684090;-73
2023/05/22 03:59:23;;;;;;;4.20;3.80;;;;;;;12.32;100.00;97570.69;1710963;75;860900;-72
2023/05/22 04:01:53;;;;;;;4.20;3.80;;;;;;;12.24;100.00;97577.88;1656116;75;4754466;-72
2023/05/22 04:04:26;;;;;;;4.10;3.70;;;;;;;12.33;100.00;97574.19;1663438;75;4792792;-73
2023/05/22 04:06:56;;;;;;;4.00;3.60;;;;;;;12.38;100.00;97573.47;1688431;75;1974768;-73
2023/05/22 04:09:29;;;;;;;4.40;3.60;;;;;;;12.43;100.00;97574.75;1711579;75;770545;-73
2023/05/22 04:12:00;;;;;;;3.95;3.50;;;;;;;12.47;100.00;97576.00;1702968;75;744534;-71
2023/05/22 04:14:31;;;;;;;4.00;3.60;;;;;;;12.48;100.00;97574.00;1685973;75;2876529;-72
2023/05/22 04:17:02;;;;;;;3.70;3.40;;;;;;;12.46;100.00;97582.75;1701135;75;906200;-71
2023/05/22 04:19:35;;;;;;;4.30;3.90;;;;;;;12.49;100.00;97583.78;1712282;75;686560;-73
2023/05/22 04:22:05;;;;;;;8.45;7.65;;;;;;;12.49;100.00;97575.53;1703052;75;742775;-71
2023/05/22 04:24:38;;;;;;;8.40;7.60;;;;;;;12.60;100.00;97575.56;1698457;75;1860526;-73
2023/05/22 04:27:08;;;;;;;8.60;7.70;;;;;;;12.69;100.00;97572.63;1701836;75;827368;-73
2023/05/22 04:29:41;;;;;;;6.60;5.90;;;;;;;12.78;100.00;97579.94;1712301;75;673827;-71
2023/05/22 04:32:16;;;;;;;6.30;5.70;;;;;;;12.82;100.00;97576.94;1701693;75;792971;-70
2023/05/22 04:34:52;;;;;;;7.10;6.40;;;;;;;12.87;100.00;97581.69;1704953;75;674136;-74
2023/05/22 04:37:23;;;;;;;6.90;6.20;;;;;;;12.92;100.00;97578.25;1711772;75;680646;-71
2023/05/22 04:39:56;;;;;;;10.40;9.30;;;;;;;12.96;100.00;97579.50;1687195;75;1860806;-72
2023/05/22 04:42:27;;;;;;;9.20;8.30;;;;;;;13.06;100.00;97582.81;1686750;75;2814181;-73
2023/05/22 04:44:57;;;;;;;9.10;8.20;;;;;;;13.14;100.00;97591.31;1703823;75;676258;-71
2023/05/22 04:47:30;;;;;;;9.00;8.10;;;;;;;13.16;100.00;97581.31;1711908;75;682901;-71
2023/05/22 04:50:04;;;;;;;14.80;12.90;;;;;;;13.22;100.00;97584.84;1689408;75;1873579;-71
2023/05/22 04:52:34;;;;;;;12.50;11.05;;;;;;;13.23;100.00;97582.84;1711604;75;675188;-72
2023/05/22 04:55:05;;;;;;;8.60;7.80;;;;;;;13.32;100.00;97579.13;1702969;75;750297;-71
2023/05/22 04:57:35;;;;;;;7.70;6.90;;;;;;;13.42;100.00;97580.41;1711983;75;674717;-70
2023/05/22 05:00:08;;;;;;;7.20;6.50;;;;;;;13.52;100.00;97589.94;1689380;75;1922459;-69
2023/05/22 05:02:38;;;;;;;6.65;6.05;;;;;;;13.64;100.00;97594.22;1711769;75;733443;-69
2023/05/22 05:05:12;;;;;;;5.50;5.00;;;;;;;13.75;100.00;97585.22;1704330;75;681717;-76
2023/05/22 05:07:45;;;;;;;5.00;4.50;;;;;;;13.85;100.00;97585.72;1711827;75;673990;-75
2023/05/22 05:10:15;;;;;;;5.10;4.60;;;;;;;13.97;100.00;97586.47;1666411;75;3782261;-74
2023/05/22 05:12:48;;;;;;;4.20;3.80;;;;;;;14.00;100.00;97589.00;1711838;75;679072;-73
2023/05/22 05:15:19;;;;;;;5.70;4.25;;;;;;;14.15;100.00;97588.75;1701597;75;778594;-71
2023/05/22 05:17:49;;;;;;;5.10;4.60;;;;;;;14.23;100.00;97592.47;1699649;75;1739697;-71
2023/05/22 05:20:24;;;;;;;5.20;4.70;;;;;;;14.37;100.00;97598.97;1703405;75;751988;-71
2023/05/22 05:22:54;;;;;;;4.70;4.20;;;;;;;14.49;100.00;97597.69;1698503;75;1834611;-70
2023/05/22 05:25:24;;;;;;;4.10;3.70;;;;;;;14.60;100.00;97596.97;1703021;75;757856;-72
2023/05/22 05:27:55;;;;;;;4.75;4.35;;;;;;;14.72;100.00;97602.44;1708405;75;950056;-73
2023/05/22 05:30:25;;;;;;;8.65;7.75;;;;;;;14.80;100.00;97592.41;1702800;75;728280;-71
2023/05/22 05:32:55;;;;;;;8.40;7.50;;;;;;;15.07;100.00;97590.78;1711738;75;671881;-72
2023/05/22 05:35:28;;;;;;;11.90;8.70;;;;;;;15.29;100.00;97598.22;1701840;75;753862;-70
2023/05/22 05:37:58;;;;;;;11.20;9.80;;;;;;;15.47;100.00;97603.13;1711538;75;674643;-70
2023/05/22 05:40:28;;;;;;;14.75;10.90;;;;;;;15.65;100.00;97606.53;1701180;75;860970;-71
2023/05/22 05:42:58;;;;;;;13.15;10.85;;;;;;;15.73;100.00;97600.00;1712245;75;684907;-70
2023/05/22 05:45:29;;;;;;;10.05;9.05;;;;;;;15.93;100.00;97603.63;1702671;75;756161;-71
2023/05/22 05:48:00;;;;;;;9.30;8.40;;;;;;;15.97;100.00;97601.34;1711669;75;678217;-71
2023/05/22 05:50:32;;;;;;;11.25;10.15;;;;;;;15.92;100.00;97596.59;1703127;75;753474;-73
2023/05/22 05:53:04;;;;;;;10.90;9.80;;;;;;;16.09;100.00;97590.94;1697960;75;1836040;-72
2023/05/22 05:55:34;;;;;;;12.30;11.00;;;;;;;16.08;100.00;97597.72;1675318;75;2984519;-71
2023/05/22 05:58:08;;;;;;;17.20;12.10;;;;;;;16.18;100.00;97596.13;1710038;75;671417;-72
2023/05/22 06:00:38;;;;;;;10.55;9.50;;;;;;;16.47;100.00;97596.63;1701510;75;837071;-72
2023/05/22 06:03:09;;;;;;;12.55;10.05;;;;;;;16.55;100.00;97595.56;1708326;75;993572;-73
2023/05/22 06:05:41;;;;;;;9.95;8.95;;;;;;;16.82;100.00;97598.56;1703044;75;754874;-70
2023/05/22 06:08:12;;;;;;;13.90;10.60;;;;;;;17.13;100.00;97590.91;1708006;75;996675;-71
2023/05/22 06:10:42;;;;;;;13.45;10.05;;;;;;;17.09;100.00;97593.22;1702237;75;737428;-71
2023/05/22 06:13:12;;;;;;;11.75;9.25;;;;;;;17.39;100.00;97585.53;1708463;75;953663;-72
2023/05/22 06:15:45;;;;;;;12.90;9.00;;;;;;;17.46;100.00;97593.25;1676219;75;2969461;-71
2023/05/22 06:18:16;;;;;;;14.50;9.80;;;;;;;17.43;100.00;97596.31;1699314;75;1754602;-72
2023/05/22 06:20:49;;;;;;;14.95;9.85;;;;;;;17.45;100.00;97596.53;1702069;75;823601;-72
2023/05/22 06:23:19;;;;;;;8.50;7.55;;;;;;;17.71;100.00;97601.44;1711945;75;680144;-75
2023/05/22 06:25:49;;;;;;;8.30;7.20;;;;;;;17.89;100.00;97594.41;1702747;75;747509;-71
2023/05/22 06:28:19;;;;;;;10.15;8.75;;;;;;;17.86;98.96;97595.47;1712360;75;678460;-71
2023/05/22 06:30:49;;;;;;;8.80;7.90;;;;;;;18.07;100.00;97596.38;1700144;75;933345;-70
2023/05/22 06:33:20;;;;;;;8.20;7.00;;;;;;;18.41;97.06;97590.28;1712152;75;672147;-70
2023/05/22 06:35:53;;;;;;;8.50;7.70;;;;;;;18.46;95.72;97599.78;1703125;75;753518;-70
2023/05/22 06:38:25;;;;;;;10.75;8.55;;;;;;;18.55;98.61;97595.84;1709958;75;836306;-73
2023/05/22 06:40:55;;;;;;;10.50;8.20;;;;;;;18.48;97.39;97600.00;1700133;75;944121;-73
2023/05/22 06:43:25;;;;;;;10.55;7.60;;;;;;;18.87;97.66;97593.75;1711957;75;678836;-70
2023/05/22 06:45:55;;;;;;;8.65;7.20;;;;;;;18.88;92.47;97594.47;1702836;75;767247;-74
2023/05/22 06:48:26;;;;;;;8.65;7.45;;;;;;;19.08;95.73;97596.63;1708329;75;997319;-74
2023/05/22 06:50:59;;;;;;;9.20;6.65;;;;;;;19.31;91.33;97596.13;1702757;75;755326;-69
2023/05/22 06:53:29;;;;;;;10.20;8.00;;;;;;;19.30;88.04;97589.84;1709024;75;928828;-72
2023/05/22 06:55:59;;;;;;;10.50;8.40;;;;;;;19.41;89.08;97599.22;1703099;75;748346;-70
2023/05/22 06:58:30;;;;;;;10.60;7.95;;;;;;;19.54;87.08;97594.38;1697289;75;1970008;-71
2023/05/22 07:01:00;;;;;;;10.30;7.50;;;;;;;19.58;83.67;97596.84;1702295;75;828161;-72
2023/05/22 07:03:30;;;;;;;12.80;8.10;;;;;;;19.77;83.44;97589.09;1710295;75;867516;-74
2023/05/22 07:06:03;;;;;;;11.70;7.20;;;;;;;19.87;83.99;97591.41;1703352;75;752736;-77
2023/05/22 07:08:33;;;;;;;8.10;7.00;;;;;;;19.96;84.17;97594.47;1672536;75;4073425;-70
2023/05/22 07:11:05;;;;;;;8.45;7.20;;;;;;;20.05;82.42;97592.50;1703887;75;739895;-70
2023/05/22 07:13:35;;;;;;;8.95;7.45;;;;;;;20.06;84.05;97591.97;1712056;75;686466;-72
2023/05/22 07:16:06;;;;;;;9.55;6.75;;;;;;;20.20;81.76;97587.81;1703798;75;745069;-70
2023/05/22 07:18:38;;;;;;;6.40;5.70;;;;;;;20.40;80.40;97591.88;1712592;75;676299;-74
2023/05/22 07:21:11;;;;;;;6.30;5.50;;;;;;;20.61;78.05;97593.88;1703528;75;765266;-73
2023/05/22 07:23:42;;;;;;;7.70;5.60;;;;;;;20.62;74.06;97593.34;1711798;75;676527;-74
2023/05/22 07:26:12;;;;;;;8.25;5.65;;;;;;;20.73;74.43;97595.06;1702611;75;736219;-70
2023/05/22 07:28:42;;;;;;;6.50;5.25;;;;;;;21.03;75.08;97594.50;1626640;75;7745841;-71
2023/05/22 07:31:12;;;;;;;8.55;6.05;;;;;;;21.14;72.86;97596.25;1702804;75;742055;-73
2023/05/22 07:33:43;;;;;;;9.00;6.15;;;;;;;21.19;74.41;97589.75;1711167;75;670197;-71
2023/05/22 07:36:16;;;;;;;8.30;6.40;;;;;;;21.37;71.59;97596.31;1686858;75;1982958;-74
2023/05/22 07:38:47;;;;;;;8.70;6.30;;;;;;;21.36;70.42;97591.28;1711293;75;686219;-72
2023/05/22 07:41:17;;;;;;;5.95;5.30;;;;;;;21.61;71.19;97597.16;1691152;75;1703680;-70
2023/05/22 07:43:47;;;;;;;7.60;5.35;;;;;;;21.41;71.64;97593.94;1686236;75;2793672;-74
2023/05/22 07:46:17;;;;;;;9.00;5.95;;;;;;;21.18;70.67;97587.53;1702853;75;748745;-72
2023/05/22 07:48:48;;;;;;;5.60;5.00;;;;;;;21.67;71.43;97579.00;1711088;75;673041;-71
2023/05/22 07:51:20;;;;;;;7.80;5.10;;;;;;;22.12;69.99;97582.38;1687344;75;1938964;-74
2023/05/22 07:53:51;;;;;;;10.60;6.40;;;;;;;21.91;68.69;97590.91;1710003;75;746348;-71
2023/05/22 07:56:21;;;;;;;8.60;6.05;;;;;;;22.13;68.69;97587.41;1701048;75;757094;-71
2023/05/22 07:58:54;;;;;;;6.60;5.60;;;;;;;22.28;68.67;97585.94;1711082;75;676814;-70
2023/05/22 08:01:25;;;;;;;6.35;5.75;;;;;;;22.30;68.48;97577.78;1702204;75;731197;-71
2023/05/22 08:03:55;;;;;;;6.90;5.30;;;;;;;22.52;67.48;97573.47;1711162;75;675315;-71
2023/05/22 08:06:30;;;;;;;6.15;5.30;;;;;;;22.63;66.43;97578.66;1701444;75;745956;-69
2023/05/22 08:09:01;;;;;;;4.90;4.40;;;;;;;22.77;65.30;97579.19;1711163;75;675134;-70
2023/05/22 08:11:31;;;;;;;8.00;4.80;;;;;;;22.41;66.73;97579.44;1702049;75;752839;-72
2023/05/22 08:14:01;;;;;;;4.30;3.90;;;;;;;22.58;65.40;97579.59;1710192;75;684968;-71
2023/05/22 08:16:31;;;;;;;6.90;5.40;;;;;;;22.79;65.23;97573.78;1698359;75;960044;-76
2023/05/22 08:19:02;;;;;;;7.75;5.40;;;;;;;23.03;64.89;97580.09;1711131;75;672796;-72
2023/05/22 08:21:36;;;;;;;9.20;5.90;;;;;;;22.49;65.39;97572.56;1702497;75;757661;-72
2023/05/22 08:24:06;;;;;;;9.20;6.20;;;;;;;22.70;66.38;97574.34;1711109;75;684446;-70
2023/05/22 08:26:37;;;;;;;8.80;6.10;;;;;;;22.61;65.25;97570.13;1701077;75;760210;-75
2023/05/22 08:29:07;;;;;;;7.60;6.10;;;;;;;22.99;69.82;97565.75;1709829;75;725755;-70
2023/05/22 08:31:40;;;;;;;6.95;5.35;;;;;;;23.31;66.62;97567.88;1702116;75;746380;-69
2023/05/22 08:34:10;;;;;;;7.90;6.90;;;;;;;22.93;65.82;97572.25;1710616;75;676052;-73
2023/05/22 08:36:44;;;;;;;8.10;6.95;;;;;;;23.49;67.05;97569.44;1701452;75;746486;-74
2023/05/22 08:39:14;;;;;;;9.10;6.30;;;;;;;23.19;66.68;97570.34;1709879;75;703527;-74
2023/05/22 08:41:46;;;;;;;9.10;6.40;;;;;;;23.50;66.92;97567.38;1702276;75;727234;-73
2023/05/22 08:44:16;;;;;;;12.40;6.90;;;;;;;23.43;67.99;97568.94;1710392;75;672283;-71
2023/05/22 08:46:48;;;;;;;10.90;6.15;;;;;;;23.56;66.66;97571.47;1702263;75;746331;-69
2023/05/22 08:49:19;;;;;;;9.30;6.50;;;;;;;23.13;67.06;97561.41;1710280;75;708047;-71
2023/05/22 08:51:58;;;;;;;9.15;6.15;;;;;;;23.42;67.25;97561.09;1701932;75;752333;-72
2023/05/22 08:54:30;;;;;;;7.35;6.55;;;;;;;23.43;65.35;97563.34;1702854;75;676777;-75
2023/05/22 08:57:01;;;;;;;7.50;5.95;;;;;;;23.58;64.77;97562.50;1710716;75;678217;-73
2023/05/22 08:59:33;;;;;;;10.00;7.30;;;;;;;23.20;64.47;97554.31;1688466;75;1888104;-74
2023/05/22 09:02:03;;;;;;;8.95;6.60;;;;;;;23.58;63.20;97552.06;1708644;75;868307;-71
2023/05/22 09:04:34;;;;;;;7.45;6.50;;;;;;;23.67;63.29;97555.56;1702475;75;729834;-73
2023/05/22 09:07:07;;;;;;;8.65;5.85;;;;;;;23.90;62.04;97552.66;1710778;75;678758;-69
2023/05/22 09:09:40;;;;;;;8.25;5.55;;;;;;;24.10;61.85;97550.81;1703345;75;674810;-70
2023/05/22 09:12:12;;;;;;;8.60;6.50;;;;;;;23.90;62.85;97549.84;1711172;75;684805;-71
2023/05/22 09:14:43;;;;;;;7.60;6.80;;;;;;;23.78;63.39;97553.09;1702110;75;679485;-71
2023/05/22 09:17:19;;;;;;;7.95;5.65;;;;;;;23.97;61.36;97551.84;1707014;75;991615;-71
2023/05/22 09:19:50;;;;;;;7.00;6.30;;;;;;;24.08;63.74;97547.88;1702519;75;675009;-69
2023/05/22 09:22:22;;;;;;;7.75;6.20;;;;;;;23.93;62.47;97549.47;1696472;75;1841997;-70
2023/05/22 09:24:53;;;;;;;9.65;5.85;;;;;;;24.44;57.27;97541.75;1702324;75;717342;-72
2023/05/22 09:27:26;;;;;;;8.40;6.60;;;;;;;24.62;59.98;97550.94;1708807;75;673856;-71
2023/05/22 09:30:00;;;;;;;6.10;5.30;;;;;;;24.94;56.65;97544.41;1699011;75;891475;-70
2023/05/22 09:32:33;;;;;;;11.00;5.70;;;;;;;24.92;54.24;97547.06;1697188;75;1849025;-76
2023/05/22 09:35:08;;;;;;;4.90;4.10;;;;;;;25.40;54.32;97552.28;1701862;75;746889;-69
2023/05/22 09:37:41;;;;;;;8.60;6.10;;;;;;;24.76;55.63;97554.16;1710278;75;672869;-70
2023/05/22 09:40:16;;;;;;;7.30;5.50;;;;;;;24.73;56.47;97549.72;1700695;75;750378;-71
2023/05/22 09:42:47;;;;;;;8.30;5.50;;;;;;;25.28;57.11;97551.34;1681606;75;2694915;-72
2023/05/22 09:45:21;;;;;;;7.15;6.15;;;;;;;25.15;55.91;97546.03;1710801;75;674353;-71
2023/05/22 09:47:52;;;;;;;9.60;5.50;;;;;;;24.60;55.70;97543.09;1701206;75;683717;-72
2023/05/22 09:50:23;;;;;;;6.45;5.60;;;;;;;24.42;56.95;97538.78;1710289;75;686527;-70
2023/05/22 09:52:57;;;;;;;5.60;5.00;;;;;;;24.57;55.58;97543.53;1699682;75;895085;-74
2023/05/22 09:55:29;;;;;;;10.10;5.60;;;;;;;24.47;56.60;97540.63;1709322;75;685735;-73
2023/05/22 09:58:06;;;;;;;9.50;4.70;;;;;;;24.45;54.58;97534.84;1699691;75;803298;-70
2023/05/22 10:00:37;;;;;;;6.40;4.80;;;;;;;25.26;54.71;97540.69;1710852;75;673764;-69
2023/05/22 10:03:14;;;;;;;8.00;5.10;;;;;;;25.31;54.20;97541.03;1702637;75;678245;-69
2023/05/22 10:05:50;;;;;;;7.30;4.65;;;;;;;25.62;53.55;97533.66;1709785;75;676230;-71
2023/05/22 10:08:29;;;;;;;6.00;5.05;;;;;;;25.22;55.04;97528.44;1701280;75;750555;-76
2023/05/22 10:11:00;;;;;;;10.85;5.05;;;;;;;25.62;54.13;97532.94;1701516;75;677633;-71
2023/05/22 10:13:32;;;;;;;5.90;4.70;;;;;;;25.33;51.89;97533.53;1709985;75;682740;-75
2023/05/22 10:16:03;;;;;;;8.10;5.50;;;;;;;24.75;53.78;97527.47;1701233;75;688102;-78
2023/05/22 10:18:34;;;;;;;6.30;5.30;;;;;;;25.53;53.37;97525.22;1709504;75;689161;-74
2023/05/22 10:21:04;;;;;;;5.85;4.55;;;;;;;25.99;53.32;97518.94;1702199;75;678907;-72
2023/05/22 10:23:38;;;;;;;9.70;5.80;;;;;;;24.99;56.10;97531.47;1710734;75;674674;-75
2023/05/22 10:26:09;;;;;;;8.90;5.10;;;;;;;25.97;53.96;97527.19;1701559;75;678118;-71
2023/05/22 10:28:47;;;;;;;10.20;4.85;;;;;;;25.73;52.22;97526.78;1711444;75;675492;-71
2023/05/22 10:31:29;;;;;;;6.10;4.90;;;;;;;26.07;52.32;97520.31;1703194;75;675621;-69
2023/05/22 10:34:04;;;;;;;5.70;3.90;;;;;;;26.54;52.78;97518.19;1702889;75;675777;-72
2023/05/22 10:36:53;;;;;;;9.00;5.40;;;;;;;26.61;51.55;97518.63;1709848;75;674505;-72
2023/05/22 10:39:42;;;;;;;5.75;4.85;;;;;;;26.85;50.52;97517.59;1676845;75;2781907;-72
2023/05/22 10:42:16;;;;;;;5.55;4.70;;;;;;;26.85;49.27;97523.22;1701710;75;674454;-74
2023/05/22 10:44:46;;;;;;;4.60;4.20;;;;;;;26.30;50.12;97514.28;1710756;75;674542;-72
2023/05/22 10:47:17;;;;;;;5.10;4.40;;;;;;;26.06;49.77;97513.19;1702037;75;737608;-70
2023/05/22 10:49:49;;;;;;;4.60;4.20;;;;;;;26.86;49.34;97501.47;1710497;75;672226;-71
2023/05/22 10:52:20;;;;;;;7.10;4.20;;;;;;;26.93;48.79;97497.78;1702239;75;676349;-69
2023/05/22 10:54:58;;;;;;;4.90;4.20;;;;;;;26.84;50.07;97499.25;1710600;75;676614;-72
2023/05/22 10:57:29;;;;;;;4.90;4.20;;;;;;;26.08;48.67;97504.94;1698057;75;940456;-70
2023/05/22 11:00:11;;;;;;;4.40;3.65;;;;;;;27.10;48.79;97497.59;1710557;75;673720;-73
2023/05/22 11:02:44;;;;;;;5.00;4.15;;;;;;;26.17;48.75;97491.50;1702073;75;742656;-71
2023/05/22 11:05:36;;;;;;;5.10;3.90;;;;;;;26.88;46.87;97491.13;1710185;75;672128;-73
2023/05/22 11:08:50;;;;;;;6.95;4.25;;;;;;;27.14;49.43;97489.47;1700955;75;755577;-73
2023/05/22 11:11:28;;;;;;;5.10;4.10;;;;;;;26.28;48.79;97490.94;1700726;75;802192;-72
2023/05/22 11:14:06;;;;;;;4.60;3.80;;;;;;;26.69;48.50;97480.63;1702076;75;681885;-73
2023/05/22 11:16:36;;;;;;;5.10;4.30;;;;;;;26.77;48.08;97474.88;1709556;75;697228;-70
2023/05/22 11:19:10;;;;;;;4.40;3.50;;;;;;;27.62;46.85;97465.38;1699788;75;950519;-71
2023/05/22 11:21:46;;;;;;;3.75;3.00;;;;;;;27.21;46.36;97470.25;1710114;75;707288;-72
2023/05/22 11:24:19;;;;;;;;;;;;;;;27.13;47.29;97470.38;1702624;75;709937;-70
2023/05/22 11:27:05;;;;;;;5.05;4.30;;;;;;;27.13;47.16;97465.53;1710268;75;672295;-71
2023/05/22 11:29:37;;;;;;;4.35;3.25;;;;;;;27.58;47.84;97460.19;1702154;75;752597;-75
2023/05/22 11:32:14;;;;;;;4.70;4.00;;;;;;;27.29;45.74;97453.97;1710134;75;678894;-72
2023/05/22 11:34:44;;;;;;;5.00;3.90;;;;;;;27.15;46.85;97454.41;1702605;75;756410;-75
2023/05/22 11:37:16;;;;;;;7.60;4.75;;;;;;;27.03;45.76;97453.53;1711114;75;680353;-71
2023/05/22 11:39:51;;;;;;;4.10;3.70;;;;;;;27.17;45.35;97451.00;1701618;75;793356;-72
2023/05/22 11:42:25;;;;;;;5.55;3.45;;;;;;;26.99;44.55;97459.63;1710594;75;701683;-72